sensor_id;sensor_type;location;lat;lon;timestamp;P1;durP1;ratioP1;P2;durP2;ratioP2
1390;SDS011;690;51.454;7.194;2023-11-21T00:00:03;18.00;;;11.47;;
1390;SDS011;690;51.454;7.194;2023-11-21T00:02:37;18.27;;;11.60;;
1390;SDS011;690;51.454;7.194;2023-11-21T00:05:05;22.40;;;11.53;;
1390;SDS011;690;51.454;7.194;2023-11-21T00:07:34;18.93;;;12.37;;
1390;SDS011;690;51.454;7.194;2023-11-21T00:10:01;21.73;;;12.30;;
1390;SDS011;690;51.454;7.194;2023-11-21T00:12:30;20.63;;;10.63;;
1390;SDS011;690;51.454;7.194;2023-11-21T00:15:02;21.47;;;11.07;;
1390;SDS011;690;51.454;7.194;2023-11-21T00:17:30;14.63;;;10.00;;
1390;SDS011;690;51.454;7.194;2023-11-21T00:19:57;18.43;;;12.30;;
1390;SDS011;690;51.454;7.194;2023-11-21T00:22:24;19.17;;;11.60;;
1390;SDS011;690;51.454;7.194;2023-11-21T00:24:52;20.37;;;11.30;;
1390;SDS011;690;51.454;7.194;2023-11-21T00:27:19;15.50;;;10.17;;
1390;SDS011;690;51.454;7.194;2023-11-21T00:29:46;22.23;;;11.53;;
1390;SDS011;690;51.454;7.194;2023-11-21T00:32:13;16.13;;;11.53;;
1390;SDS011;690;51.454;7.194;2023-11-21T00:34:39;22.10;;;11.70;;
1390;SDS011;690;51.454;7.194;2023-11-21T00:37:07;26.20;;;11.73;;
1390;SDS011;690;51.454;7.194;2023-11-21T00:39:34;20.13;;;11.30;;
1390;SDS011;690;51.454;7.194;2023-11-21T00:42:02;19.90;;;11.73;;
1390;SDS011;690;51.454;7.194;2023-11-21T00:44:30;16.70;;;10.77;;
1390;SDS011;690;51.454;7.194;2023-11-21T00:46:59;19.83;;;11.60;;
1390;SDS011;690;51.454;7.194;2023-11-21T00:49:26;23.87;;;11.17;;
1390;SDS011;690;51.454;7.194;2023-11-21T00:51:53;16.17;;;10.40;;
1390;SDS011;690;51.454;7.194;2023-11-21T00:54:20;17.63;;;11.10;;
1390;SDS011;690;51.454;7.194;2023-11-21T00:56:48;16.33;;;9.60;;
1390;SDS011;690;51.454;7.194;2023-11-21T00:59:16;16.87;;;11.60;;
1390;SDS011;690;51.454;7.194;2023-11-21T01:01:43;16.23;;;11.77;;
1390;SDS011;690;51.454;7.194;2023-11-21T01:04:10;20.90;;;11.97;;
1390;SDS011;690;51.454;7.194;2023-11-21T01:06:37;16.40;;;11.37;;
1390;SDS011;690;51.454;7.194;2023-11-21T01:09:04;13.67;;;10.47;;
1390;SDS011;690;51.454;7.194;2023-11-21T01:11:33;19.93;;;10.50;;
1390;SDS011;690;51.454;7.194;2023-11-21T01:14:01;19.67;;;12.50;;
1390;SDS011;690;51.454;7.194;2023-11-21T01:16:30;23.83;;;12.23;;
1390;SDS011;690;51.454;7.194;2023-11-21T01:18:58;20.27;;;12.00;;
1390;SDS011;690;51.454;7.194;2023-11-21T01:21:25;22.73;;;11.37;;
1390;SDS011;690;51.454;7.194;2023-11-21T01:23:53;17.57;;;10.40;;
1390;SDS011;690;51.454;7.194;2023-11-21T01:26:20;19.90;;;12.30;;
1390;SDS011;690;51.454;7.194;2023-11-21T01:28:47;18.77;;;11.57;;
1390;SDS011;690;51.454;7.194;2023-11-21T01:31:14;20.33;;;11.13;;
1390;SDS011;690;51.454;7.194;2023-11-21T01:33:42;23.17;;;13.00;;
1390;SDS011;690;51.454;7.194;2023-11-21T01:36:09;19.97;;;11.57;;
1390;SDS011;690;51.454;7.194;2023-11-21T01:38:36;20.70;;;12.10;;
1390;SDS011;690;51.454;7.194;2023-11-21T01:41:04;15.10;;;10.63;;
1390;SDS011;690;51.454;7.194;2023-11-21T01:43:31;18.80;;;12.70;;
1390;SDS011;690;51.454;7.194;2023-11-21T01:46:00;15.37;;;10.90;;
1390;SDS011;690;51.454;7.194;2023-11-21T01:48:28;18.47;;;12.10;;
1390;SDS011;690;51.454;7.194;2023-11-21T01:50:56;21.30;;;12.03;;
1390;SDS011;690;51.454;7.194;2023-11-21T01:53:23;20.07;;;11.97;;
1390;SDS011;690;51.454;7.194;2023-11-21T01:55:51;16.10;;;11.47;;
1390;SDS011;690;51.454;7.194;2023-11-21T01:58:19;19.67;;;11.87;;
1390;SDS011;690;51.454;7.194;2023-11-21T02:00:46;20.20;;;12.97;;
1390;SDS011;690;51.454;7.194;2023-11-21T02:03:17;22.07;;;11.77;;
1390;SDS011;690;51.454;7.194;2023-11-21T02:05:44;27.53;;;12.20;;
1390;SDS011;690;51.454;7.194;2023-11-21T02:08:15;20.43;;;11.70;;
1390;SDS011;690;51.454;7.194;2023-11-21T02:10:42;21.77;;;11.10;;
1390;SDS011;690;51.454;7.194;2023-11-21T02:13:09;21.47;;;11.73;;
1390;SDS011;690;51.454;7.194;2023-11-21T02:15:36;18.37;;;11.10;;
1390;SDS011;690;51.454;7.194;2023-11-21T02:18:03;20.60;;;12.03;;
1390;SDS011;690;51.454;7.194;2023-11-21T02:20:31;20.37;;;11.33;;
1390;SDS011;690;51.454;7.194;2023-11-21T02:23:01;21.40;;;10.93;;
1390;SDS011;690;51.454;7.194;2023-11-21T02:25:28;19.73;;;11.50;;
1390;SDS011;690;51.454;7.194;2023-11-21T02:27:56;20.50;;;12.50;;
1390;SDS011;690;51.454;7.194;2023-11-21T02:30:24;22.53;;;12.60;;
1390;SDS011;690;51.454;7.194;2023-11-21T02:32:52;21.13;;;12.10;;
1390;SDS011;690;51.454;7.194;2023-11-21T02:35:19;23.80;;;12.80;;
1390;SDS011;690;51.454;7.194;2023-11-21T02:37:47;15.70;;;9.30;;
1390;SDS011;690;51.454;7.194;2023-11-21T02:40:15;18.57;;;11.83;;
1390;SDS011;690;51.454;7.194;2023-11-21T02:42:43;18.40;;;11.30;;
1390;SDS011;690;51.454;7.194;2023-11-21T02:45:10;20.10;;;10.80;;
1390;SDS011;690;51.454;7.194;2023-11-21T02:47:38;29.63;;;12.57;;
1390;SDS011;690;51.454;7.194;2023-11-21T02:50:05;18.97;;;12.27;;
1390;SDS011;690;51.454;7.194;2023-11-21T02:52:33;27.63;;;12.10;;
1390;SDS011;690;51.454;7.194;2023-11-21T02:55:00;21.50;;;11.90;;
1390;SDS011;690;51.454;7.194;2023-11-21T02:57:28;22.23;;;12.20;;
1390;SDS011;690;51.454;7.194;2023-11-21T02:59:56;22.27;;;12.40;;
1390;SDS011;690;51.454;7.194;2023-11-21T03:02:22;19.50;;;12.10;;
1390;SDS011;690;51.454;7.194;2023-11-21T03:04:49;20.13;;;11.47;;
1390;SDS011;690;51.454;7.194;2023-11-21T03:07:16;19.37;;;12.10;;
1390;SDS011;690;51.454;7.194;2023-11-21T03:09:44;22.93;;;12.70;;
1390;SDS011;690;51.454;7.194;2023-11-21T03:12:11;18.03;;;12.60;;
1390;SDS011;690;51.454;7.194;2023-11-21T03:14:40;17.60;;;12.43;;
1390;SDS011;690;51.454;7.194;2023-11-21T03:17:09;23.63;;;13.00;;
1390;SDS011;690;51.454;7.194;2023-11-21T03:19:36;22.10;;;12.10;;
1390;SDS011;690;51.454;7.194;2023-11-21T03:22:03;21.30;;;13.10;;
1390;SDS011;690;51.454;7.194;2023-11-21T03:24:30;27.47;;;13.30;;
1390;SDS011;690;51.454;7.194;2023-11-21T03:26:57;17.30;;;12.27;;
1390;SDS011;690;51.454;7.194;2023-11-21T03:29:24;20.77;;;12.97;;
1390;SDS011;690;51.454;7.194;2023-11-21T03:31:53;20.47;;;13.17;;
1390;SDS011;690;51.454;7.194;2023-11-21T03:34:24;23.63;;;12.67;;
1390;SDS011;690;51.454;7.194;2023-11-21T03:36:52;21.00;;;12.80;;
1390;SDS011;690;51.454;7.194;2023-11-21T03:39:20;20.00;;;11.83;;
1390;SDS011;690;51.454;7.194;2023-11-21T03:41:47;20.93;;;11.70;;
1390;SDS011;690;51.454;7.194;2023-11-21T03:44:14;19.40;;;13.40;;
1390;SDS011;690;51.454;7.194;2023-11-21T03:46:42;30.40;;;13.13;;
1390;SDS011;690;51.454;7.194;2023-11-21T03:49:11;20.30;;;13.40;;
1390;SDS011;690;51.454;7.194;2023-11-21T03:51:38;26.30;;;13.67;;
1390;SDS011;690;51.454;7.194;2023-11-21T03:54:05;19.90;;;13.17;;
1390;SDS011;690;51.454;7.194;2023-11-21T03:56:32;22.00;;;12.93;;
1390;SDS011;690;51.454;7.194;2023-11-21T03:58:59;20.93;;;12.83;;
1390;SDS011;690;51.454;7.194;2023-11-21T04:01:26;22.37;;;12.73;;
1390;SDS011;690;51.454;7.194;2023-11-21T04:03:52;22.83;;;13.30;;
1390;SDS011;690;51.454;7.194;2023-11-21T04:06:21;22.53;;;13.40;;
1390;SDS011;690;51.454;7.194;2023-11-21T04:08:47;23.50;;;12.37;;
1390;SDS011;690;51.454;7.194;2023-11-21T04:11:14;24.20;;;12.93;;
1390;SDS011;690;51.454;7.194;2023-11-21T04:13:41;19.70;;;12.17;;
1390;SDS011;690;51.454;7.194;2023-11-21T04:16:09;25.13;;;13.50;;
1390;SDS011;690;51.454;7.194;2023-11-21T04:18:36;19.77;;;13.17;;
1390;SDS011;690;51.454;7.194;2023-11-21T04:21:06;24.97;;;13.17;;
1390;SDS011;690;51.454;7.194;2023-11-21T04:23:35;27.60;;;13.47;;
1390;SDS011;690;51.454;7.194;2023-11-21T04:26:02;22.13;;;12.53;;
1390;SDS011;690;51.454;7.194;2023-11-21T04:28:30;25.50;;;14.03;;
1390;SDS011;690;51.454;7.194;2023-11-21T04:30:57;18.03;;;12.47;;
1390;SDS011;690;51.454;7.194;2023-11-21T04:33:24;21.17;;;12.63;;
1390;SDS011;690;51.454;7.194;2023-11-21T04:35:51;20.30;;;12.53;;
1390;SDS011;690;51.454;7.194;2023-11-21T04:38:18;25.57;;;13.33;;
1390;SDS011;690;51.454;7.194;2023-11-21T04:40:46;21.13;;;12.17;;
1390;SDS011;690;51.454;7.194;2023-11-21T04:43:12;22.53;;;12.50;;
1390;SDS011;690;51.454;7.194;2023-11-21T04:45:39;21.90;;;12.00;;
1390;SDS011;690;51.454;7.194;2023-11-21T04:48:06;23.97;;;13.40;;
1390;SDS011;690;51.454;7.194;2023-11-21T04:50:35;17.07;;;11.53;;
1390;SDS011;690;51.454;7.194;2023-11-21T04:53:01;22.73;;;12.70;;
1390;SDS011;690;51.454;7.194;2023-11-21T04:55:28;24.57;;;13.53;;
1390;SDS011;690;51.454;7.194;2023-11-21T04:57:56;24.23;;;13.40;;
1390;SDS011;690;51.454;7.194;2023-11-21T05:00:23;16.70;;;11.67;;
1390;SDS011;690;51.454;7.194;2023-11-21T05:02:50;23.33;;;13.70;;
1390;SDS011;690;51.454;7.194;2023-11-21T05:05:17;30.90;;;14.47;;
1390;SDS011;690;51.454;7.194;2023-11-21T05:07:44;23.27;;;14.03;;
1390;SDS011;690;51.454;7.194;2023-11-21T05:10:11;25.27;;;13.90;;
1390;SDS011;690;51.454;7.194;2023-11-21T05:12:40;19.57;;;12.87;;
1390;SDS011;690;51.454;7.194;2023-11-21T05:15:09;26.57;;;13.83;;
1390;SDS011;690;51.454;7.194;2023-11-21T05:17:39;25.40;;;14.83;;
1390;SDS011;690;51.454;7.194;2023-11-21T05:20:08;27.20;;;13.87;;
1390;SDS011;690;51.454;7.194;2023-11-21T05:22:36;24.00;;;14.23;;
1390;SDS011;690;51.454;7.194;2023-11-21T05:25:03;28.23;;;14.90;;
1390;SDS011;690;51.454;7.194;2023-11-21T05:27:32;22.70;;;13.70;;
1390;SDS011;690;51.454;7.194;2023-11-21T05:30:05;23.30;;;13.70;;
1390;SDS011;690;51.454;7.194;2023-11-21T05:32:35;23.90;;;14.33;;
1390;SDS011;690;51.454;7.194;2023-11-21T05:35:02;23.57;;;13.67;;
1390;SDS011;690;51.454;7.194;2023-11-21T05:37:34;26.80;;;16.50;;
1390;SDS011;690;51.454;7.194;2023-11-21T05:40:04;25.17;;;15.27;;
1390;SDS011;690;51.454;7.194;2023-11-21T05:42:31;21.67;;;11.57;;
1390;SDS011;690;51.454;7.194;2023-11-21T05:44:58;26.37;;;12.37;;
1390;SDS011;690;51.454;7.194;2023-11-21T05:47:36;22.03;;;13.60;;
1390;SDS011;690;51.454;7.194;2023-11-21T05:50:04;19.30;;;12.00;;
1390;SDS011;690;51.454;7.194;2023-11-21T05:52:32;36.83;;;14.50;;
1390;SDS011;690;51.454;7.194;2023-11-21T05:54:59;28.70;;;12.83;;
1390;SDS011;690;51.454;7.194;2023-11-21T05:57:25;23.23;;;16.07;;
1390;SDS011;690;51.454;7.194;2023-11-21T05:59:52;30.00;;;14.07;;
1390;SDS011;690;51.454;7.194;2023-11-21T06:02:19;30.83;;;15.07;;
1390;SDS011;690;51.454;7.194;2023-11-21T06:04:48;22.00;;;13.87;;
1390;SDS011;690;51.454;7.194;2023-11-21T06:07:15;22.73;;;13.93;;
1390;SDS011;690;51.454;7.194;2023-11-21T06:09:41;23.53;;;13.80;;
1390;SDS011;690;51.454;7.194;2023-11-21T06:12:10;22.23;;;13.43;;
1390;SDS011;690;51.454;7.194;2023-11-21T06:14:36;26.80;;;14.20;;
1390;SDS011;690;51.454;7.194;2023-11-21T06:17:03;24.47;;;13.17;;
1390;SDS011;690;51.454;7.194;2023-11-21T06:19:30;25.73;;;13.73;;
1390;SDS011;690;51.454;7.194;2023-11-21T06:21:58;24.80;;;14.00;;
1390;SDS011;690;51.454;7.194;2023-11-21T06:24:26;32.27;;;14.30;;
1390;SDS011;690;51.454;7.194;2023-11-21T06:26:53;23.10;;;14.00;;
1390;SDS011;690;51.454;7.194;2023-11-21T06:29:20;25.13;;;14.60;;
1390;SDS011;690;51.454;7.194;2023-11-21T06:31:47;39.23;;;16.83;;
1390;SDS011;690;51.454;7.194;2023-11-21T06:34:14;27.40;;;16.33;;
1390;SDS011;690;51.454;7.194;2023-11-21T06:36:41;26.70;;;14.20;;
1390;SDS011;690;51.454;7.194;2023-11-21T06:39:09;26.23;;;14.10;;
1390;SDS011;690;51.454;7.194;2023-11-21T06:41:40;25.67;;;16.30;;
1390;SDS011;690;51.454;7.194;2023-11-21T06:44:08;26.10;;;14.20;;
1390;SDS011;690;51.454;7.194;2023-11-21T06:46:34;31.83;;;16.00;;
1390;SDS011;690;51.454;7.194;2023-11-21T06:49:03;27.73;;;14.67;;
1390;SDS011;690;51.454;7.194;2023-11-21T06:51:31;27.07;;;15.70;;
1390;SDS011;690;51.454;7.194;2023-11-21T06:53:58;24.50;;;14.80;;
1390;SDS011;690;51.454;7.194;2023-11-21T06:56:26;27.97;;;16.40;;
1390;SDS011;690;51.454;7.194;2023-11-21T06:58:53;27.57;;;15.30;;
1390;SDS011;690;51.454;7.194;2023-11-21T07:01:20;31.97;;;13.87;;
1390;SDS011;690;51.454;7.194;2023-11-21T07:03:47;31.23;;;15.50;;
1390;SDS011;690;51.454;7.194;2023-11-21T07:06:14;25.93;;;14.87;;
1390;SDS011;690;51.454;7.194;2023-11-21T07:08:42;24.60;;;14.37;;
1390;SDS011;690;51.454;7.194;2023-11-21T07:11:08;26.80;;;14.40;;
1390;SDS011;690;51.454;7.194;2023-11-21T07:13:37;32.67;;;16.60;;
1390;SDS011;690;51.454;7.194;2023-11-21T07:16:04;26.50;;;14.77;;
1390;SDS011;690;51.454;7.194;2023-11-21T07:18:31;23.97;;;14.40;;
1390;SDS011;690;51.454;7.194;2023-11-21T07:20:58;27.00;;;13.70;;
1390;SDS011;690;51.454;7.194;2023-11-21T07:23:25;30.10;;;14.87;;
1390;SDS011;690;51.454;7.194;2023-11-21T07:25:52;29.20;;;15.13;;
1390;SDS011;690;51.454;7.194;2023-11-21T07:28:19;27.83;;;15.20;;
1390;SDS011;690;51.454;7.194;2023-11-21T07:30:48;26.60;;;15.10;;
1390;SDS011;690;51.454;7.194;2023-11-21T07:33:14;31.07;;;15.83;;
1390;SDS011;690;51.454;7.194;2023-11-21T07:35:42;22.00;;;13.63;;
1390;SDS011;690;51.454;7.194;2023-11-21T07:38:11;32.63;;;16.13;;
1390;SDS011;690;51.454;7.194;2023-11-21T07:40:39;33.43;;;15.33;;
1390;SDS011;690;51.454;7.194;2023-11-21T07:43:05;28.03;;;16.47;;
1390;SDS011;690;51.454;7.194;2023-11-21T07:45:32;33.43;;;17.10;;
1390;SDS011;690;51.454;7.194;2023-11-21T07:48:00;33.13;;;18.07;;
1390;SDS011;690;51.454;7.194;2023-11-21T07:50:28;33.60;;;14.90;;
1390;SDS011;690;51.454;7.194;2023-11-21T07:52:55;34.17;;;16.83;;
1390;SDS011;690;51.454;7.194;2023-11-21T07:55:28;27.43;;;15.87;;
1390;SDS011;690;51.454;7.194;2023-11-21T07:57:57;32.97;;;15.60;;
1390;SDS011;690;51.454;7.194;2023-11-21T08:00:24;36.83;;;17.80;;
1390;SDS011;690;51.454;7.194;2023-11-21T08:02:55;36.30;;;17.07;;
1390;SDS011;690;51.454;7.194;2023-11-21T08:05:23;33.17;;;16.00;;
1390;SDS011;690;51.454;7.194;2023-11-21T08:07:50;33.27;;;16.00;;
1390;SDS011;690;51.454;7.194;2023-11-21T08:10:17;29.23;;;16.00;;
1390;SDS011;690;51.454;7.194;2023-11-21T08:12:46;30.07;;;16.63;;
1390;SDS011;690;51.454;7.194;2023-11-21T08:15:13;29.10;;;15.60;;
1390;SDS011;690;51.454;7.194;2023-11-21T08:17:40;32.93;;;16.00;;
1390;SDS011;690;51.454;7.194;2023-11-21T08:20:08;32.90;;;16.77;;
1390;SDS011;690;51.454;7.194;2023-11-21T08:22:38;27.00;;;16.17;;
1390;SDS011;690;51.454;7.194;2023-11-21T08:25:07;31.17;;;18.20;;
1390;SDS011;690;51.454;7.194;2023-11-21T08:27:34;35.30;;;16.60;;
1390;SDS011;690;51.454;7.194;2023-11-21T08:30:02;27.27;;;16.13;;
1390;SDS011;690;51.454;7.194;2023-11-21T08:32:29;26.93;;;16.50;;
1390;SDS011;690;51.454;7.194;2023-11-21T08:34:57;28.23;;;14.83;;
1390;SDS011;690;51.454;7.194;2023-11-21T08:37:24;27.10;;;15.97;;
1390;SDS011;690;51.454;7.194;2023-11-21T08:39:53;32.30;;;17.00;;
1390;SDS011;690;51.454;7.194;2023-11-21T08:42:20;34.87;;;17.70;;
1390;SDS011;690;51.454;7.194;2023-11-21T08:44:48;32.97;;;17.73;;
1390;SDS011;690;51.454;7.194;2023-11-21T08:47:15;31.27;;;17.13;;
1390;SDS011;690;51.454;7.194;2023-11-21T08:49:42;36.90;;;19.10;;
1390;SDS011;690;51.454;7.194;2023-11-21T08:52:09;38.87;;;19.77;;
1390;SDS011;690;51.454;7.194;2023-11-21T08:54:36;52.87;;;22.50;;
1390;SDS011;690;51.454;7.194;2023-11-21T08:57:05;59.80;;;23.40;;
1390;SDS011;690;51.454;7.194;2023-11-21T08:59:31;50.70;;;23.07;;
1390;SDS011;690;51.454;7.194;2023-11-21T09:01:58;43.40;;;22.93;;
1390;SDS011;690;51.454;7.194;2023-11-21T09:04:25;49.23;;;22.53;;
1390;SDS011;690;51.454;7.194;2023-11-21T09:06:52;59.83;;;26.70;;
1390;SDS011;690;51.454;7.194;2023-11-21T09:09:19;57.63;;;25.97;;
1390;SDS011;690;51.454;7.194;2023-11-21T09:11:46;54.67;;;26.33;;
1390;SDS011;690;51.454;7.194;2023-11-21T09:14:15;65.97;;;27.10;;
1390;SDS011;690;51.454;7.194;2023-11-21T09:16:43;55.13;;;25.77;;
1390;SDS011;690;51.454;7.194;2023-11-21T09:19:09;58.13;;;25.40;;
1390;SDS011;690;51.454;7.194;2023-11-21T09:21:37;63.80;;;26.10;;
1390;SDS011;690;51.454;7.194;2023-11-21T09:24:04;56.17;;;25.80;;
1390;SDS011;690;51.454;7.194;2023-11-21T09:26:34;59.93;;;25.77;;
1390;SDS011;690;51.454;7.194;2023-11-21T09:29:00;60.20;;;26.20;;
1390;SDS011;690;51.454;7.194;2023-11-21T09:31:29;60.57;;;26.70;;
1390;SDS011;690;51.454;7.194;2023-11-21T09:33:58;64.03;;;26.40;;
1390;SDS011;690;51.454;7.194;2023-11-21T09:36:25;56.77;;;25.50;;
1390;SDS011;690;51.454;7.194;2023-11-21T09:38:55;52.90;;;24.93;;
1390;SDS011;690;51.454;7.194;2023-11-21T09:41:23;60.20;;;25.97;;
1390;SDS011;690;51.454;7.194;2023-11-21T09:44:00;66.10;;;27.70;;
1390;SDS011;690;51.454;7.194;2023-11-21T09:46:34;55.13;;;23.40;;
1390;SDS011;690;51.454;7.194;2023-11-21T09:49:04;48.80;;;22.70;;
1390;SDS011;690;51.454;7.194;2023-11-21T09:51:37;49.63;;;23.87;;
1390;SDS011;690;51.454;7.194;2023-11-21T09:54:07;53.30;;;25.60;;
1390;SDS011;690;51.454;7.194;2023-11-21T09:56:36;59.33;;;27.07;;
1390;SDS011;690;51.454;7.194;2023-11-21T09:59:03;48.23;;;25.60;;
1390;SDS011;690;51.454;7.194;2023-11-21T10:01:36;55.10;;;26.53;;
1390;SDS011;690;51.454;7.194;2023-11-21T10:04:04;56.07;;;28.37;;
1390;SDS011;690;51.454;7.194;2023-11-21T10:06:36;57.50;;;25.83;;
1390;SDS011;690;51.454;7.194;2023-11-21T10:09:05;50.93;;;25.77;;
1390;SDS011;690;51.454;7.194;2023-11-21T10:11:38;55.83;;;25.20;;
1390;SDS011;690;51.454;7.194;2023-11-21T10:14:07;52.30;;;24.53;;
1390;SDS011;690;51.454;7.194;2023-11-21T10:16:39;49.80;;;25.00;;
1390;SDS011;690;51.454;7.194;2023-11-21T10:19:09;51.43;;;26.40;;
1390;SDS011;690;51.454;7.194;2023-11-21T10:21:40;45.90;;;24.37;;
1390;SDS011;690;51.454;7.194;2023-11-21T10:24:07;45.93;;;23.07;;
1390;SDS011;690;51.454;7.194;2023-11-21T10:26:34;52.53;;;26.60;;
1390;SDS011;690;51.454;7.194;2023-11-21T10:29:03;43.10;;;22.77;;
1390;SDS011;690;51.454;7.194;2023-11-21T10:31:30;47.00;;;25.60;;
1390;SDS011;690;51.454;7.194;2023-11-21T10:34:12;44.40;;;24.57;;
1390;SDS011;690;51.454;7.194;2023-11-21T10:36:40;46.10;;;25.47;;
1390;SDS011;690;51.454;7.194;2023-11-21T10:39:07;50.07;;;25.23;;
1390;SDS011;690;51.454;7.194;2023-11-21T10:41:34;44.37;;;22.53;;
1390;SDS011;690;51.454;7.194;2023-11-21T10:44:02;46.97;;;23.23;;
1390;SDS011;690;51.454;7.194;2023-11-21T10:46:32;40.30;;;24.67;;
1390;SDS011;690;51.454;7.194;2023-11-21T10:49:00;45.17;;;23.50;;
1390;SDS011;690;51.454;7.194;2023-11-21T10:51:29;45.77;;;24.07;;
1390;SDS011;690;51.454;7.194;2023-11-21T10:53:55;44.70;;;22.07;;
1390;SDS011;690;51.454;7.194;2023-11-21T10:56:27;50.97;;;27.27;;
1390;SDS011;690;51.454;7.194;2023-11-21T10:58:55;57.03;;;26.07;;
1390;SDS011;690;51.454;7.194;2023-11-21T11:01:23;45.50;;;22.17;;
1390;SDS011;690;51.454;7.194;2023-11-21T11:03:55;46.33;;;23.67;;
1390;SDS011;690;51.454;7.194;2023-11-21T11:06:22;47.17;;;22.27;;
1390;SDS011;690;51.454;7.194;2023-11-21T11:08:53;46.17;;;22.60;;
1390;SDS011;690;51.454;7.194;2023-11-21T11:11:20;34.03;;;19.70;;
1390;SDS011;690;51.454;7.194;2023-11-21T11:13:47;44.43;;;20.63;;
1390;SDS011;690;51.454;7.194;2023-11-21T11:16:15;39.13;;;20.87;;
1390;SDS011;690;51.454;7.194;2023-11-21T11:18:43;34.60;;;18.90;;
1390;SDS011;690;51.454;7.194;2023-11-21T11:21:15;38.80;;;19.20;;
1390;SDS011;690;51.454;7.194;2023-11-21T11:23:57;25.63;;;16.70;;
1390;SDS011;690;51.454;7.194;2023-11-21T11:26:50;34.73;;;17.63;;
1390;SDS011;690;51.454;7.194;2023-11-21T11:29:25;31.77;;;18.47;;
1390;SDS011;690;51.454;7.194;2023-11-21T11:32:03;28.17;;;17.13;;
1390;SDS011;690;51.454;7.194;2023-11-21T11:34:36;34.40;;;18.67;;
1390;SDS011;690;51.454;7.194;2023-11-21T11:37:08;33.80;;;17.10;;
1390;SDS011;690;51.454;7.194;2023-11-21T11:39:38;28.30;;;16.57;;
1390;SDS011;690;51.454;7.194;2023-11-21T11:42:07;38.03;;;18.40;;
1390;SDS011;690;51.454;7.194;2023-11-21T11:44:48;30.53;;;18.77;;
1390;SDS011;690;51.454;7.194;2023-11-21T11:47:20;36.03;;;17.70;;
1390;SDS011;690;51.454;7.194;2023-11-21T11:49:59;31.97;;;17.97;;
1390;SDS011;690;51.454;7.194;2023-11-21T11:52:36;32.30;;;19.47;;
1390;SDS011;690;51.454;7.194;2023-11-21T11:55:07;32.37;;;18.33;;
1390;SDS011;690;51.454;7.194;2023-11-21T11:57:38;34.20;;;17.60;;
1390;SDS011;690;51.454;7.194;2023-11-21T12:00:08;29.80;;;14.63;;
1390;SDS011;690;51.454;7.194;2023-11-21T12:02:46;20.50;;;13.27;;
1390;SDS011;690;51.454;7.194;2023-11-21T12:05:14;21.63;;;12.33;;
1390;SDS011;690;51.454;7.194;2023-11-21T12:07:48;21.73;;;13.73;;
1390;SDS011;690;51.454;7.194;2023-11-21T12:10:19;20.07;;;12.53;;
1390;SDS011;690;51.454;7.194;2023-11-21T12:12:50;20.10;;;12.20;;
1390;SDS011;690;51.454;7.194;2023-11-21T12:15:18;23.20;;;12.90;;
1390;SDS011;690;51.454;7.194;2023-11-21T12:17:46;19.90;;;12.23;;
1390;SDS011;690;51.454;7.194;2023-11-21T12:20:15;20.30;;;11.40;;
1390;SDS011;690;51.454;7.194;2023-11-21T12:22:44;17.83;;;11.63;;
1390;SDS011;690;51.454;7.194;2023-11-21T12:25:14;16.07;;;10.90;;
1390;SDS011;690;51.454;7.194;2023-11-21T12:27:46;16.67;;;10.50;;
1390;SDS011;690;51.454;7.194;2023-11-21T12:30:14;19.00;;;12.17;;
1390;SDS011;690;51.454;7.194;2023-11-21T12:32:42;21.20;;;11.97;;
1390;SDS011;690;51.454;7.194;2023-11-21T12:35:11;16.80;;;11.93;;
1390;SDS011;690;51.454;7.194;2023-11-21T12:37:38;18.00;;;11.13;;
1390;SDS011;690;51.454;7.194;2023-11-21T12:40:08;16.33;;;10.87;;
1390;SDS011;690;51.454;7.194;2023-11-21T12:42:37;18.90;;;11.80;;
1390;SDS011;690;51.454;7.194;2023-11-21T12:45:08;20.07;;;13.03;;
1390;SDS011;690;51.454;7.194;2023-11-21T12:47:41;15.77;;;10.93;;
1390;SDS011;690;51.454;7.194;2023-11-21T12:50:08;23.77;;;14.80;;
1390;SDS011;690;51.454;7.194;2023-11-21T12:52:40;18.60;;;11.83;;
1390;SDS011;690;51.454;7.194;2023-11-21T12:55:13;22.27;;;11.90;;
1390;SDS011;690;51.454;7.194;2023-11-21T12:57:42;23.30;;;13.43;;
1390;SDS011;690;51.454;7.194;2023-11-21T13:00:13;22.70;;;13.10;;
1390;SDS011;690;51.454;7.194;2023-11-21T13:02:53;22.77;;;13.23;;
1390;SDS011;690;51.454;7.194;2023-11-21T13:05:26;20.90;;;12.40;;
1390;SDS011;690;51.454;7.194;2023-11-21T13:07:54;20.10;;;12.43;;
1390;SDS011;690;51.454;7.194;2023-11-21T13:10:23;20.90;;;13.10;;
1390;SDS011;690;51.454;7.194;2023-11-21T13:12:54;19.40;;;11.50;;
1390;SDS011;690;51.454;7.194;2023-11-21T13:15:24;24.90;;;13.97;;
1390;SDS011;690;51.454;7.194;2023-11-21T13:17:52;26.30;;;13.37;;
1390;SDS011;690;51.454;7.194;2023-11-21T13:20:21;19.50;;;12.80;;
1390;SDS011;690;51.454;7.194;2023-11-21T13:22:50;25.20;;;13.33;;
1390;SDS011;690;51.454;7.194;2023-11-21T13:25:19;24.10;;;14.03;;
1390;SDS011;690;51.454;7.194;2023-11-21T13:27:47;25.83;;;14.83;;
1390;SDS011;690;51.454;7.194;2023-11-21T13:30:15;27.13;;;13.00;;
1390;SDS011;690;51.454;7.194;2023-11-21T13:32:44;19.00;;;11.60;;
1390;SDS011;690;51.454;7.194;2023-11-21T13:35:12;24.67;;;12.57;;
1390;SDS011;690;51.454;7.194;2023-11-21T13:37:48;23.17;;;13.27;;
1390;SDS011;690;51.454;7.194;2023-11-21T13:40:21;24.30;;;14.00;;
1390;SDS011;690;51.454;7.194;2023-11-21T13:42:52;27.63;;;14.50;;
1390;SDS011;690;51.454;7.194;2023-11-21T13:45:23;20.63;;;12.93;;
1390;SDS011;690;51.454;7.194;2023-11-21T13:47:52;18.87;;;12.53;;
1390;SDS011;690;51.454;7.194;2023-11-21T13:50:22;22.63;;;11.57;;
1390;SDS011;690;51.454;7.194;2023-11-21T13:52:54;20.70;;;12.60;;
1390;SDS011;690;51.454;7.194;2023-11-21T13:55:21;20.17;;;12.53;;
1390;SDS011;690;51.454;7.194;2023-11-21T13:57:51;23.77;;;12.80;;
1390;SDS011;690;51.454;7.194;2023-11-21T14:00:19;18.40;;;9.40;;
1390;SDS011;690;51.454;7.194;2023-11-21T14:03:16;20.50;;;10.93;;
1390;SDS011;690;51.454;7.194;2023-11-21T14:05:45;18.60;;;10.80;;
1390;SDS011;690;51.454;7.194;2023-11-21T14:08:16;20.40;;;10.70;;
1390;SDS011;690;51.454;7.194;2023-11-21T14:10:45;16.60;;;9.07;;
1390;SDS011;690;51.454;7.194;2023-11-21T14:13:16;16.37;;;9.67;;
1390;SDS011;690;51.454;7.194;2023-11-21T14:15:43;13.93;;;8.07;;
1390;SDS011;690;51.454;7.194;2023-11-21T14:18:11;18.83;;;9.97;;
1390;SDS011;690;51.454;7.194;2023-11-21T14:20:43;17.10;;;9.50;;
1390;SDS011;690;51.454;7.194;2023-11-21T14:23:12;15.97;;;8.93;;
1390;SDS011;690;51.454;7.194;2023-11-21T14:25:40;17.30;;;9.30;;
1390;SDS011;690;51.454;7.194;2023-11-21T14:28:07;16.50;;;9.80;;
1390;SDS011;690;51.454;7.194;2023-11-21T14:30:36;15.60;;;9.00;;
1390;SDS011;690;51.454;7.194;2023-11-21T14:33:05;12.27;;;7.50;;
1390;SDS011;690;51.454;7.194;2023-11-21T14:35:33;13.10;;;7.33;;
1390;SDS011;690;51.454;7.194;2023-11-21T14:38:01;13.90;;;7.70;;
1390;SDS011;690;51.454;7.194;2023-11-21T14:40:30;8.80;;;6.17;;
1390;SDS011;690;51.454;7.194;2023-11-21T14:42:58;11.73;;;6.27;;
1390;SDS011;690;51.454;7.194;2023-11-21T14:45:29;9.00;;;5.87;;
1390;SDS011;690;51.454;7.194;2023-11-21T14:47:56;8.50;;;5.27;;
1390;SDS011;690;51.454;7.194;2023-11-21T14:50:31;8.50;;;5.60;;
1390;SDS011;690;51.454;7.194;2023-11-21T14:53:14;10.07;;;6.40;;
1390;SDS011;690;51.454;7.194;2023-11-21T14:55:41;9.20;;;5.70;;
1390;SDS011;690;51.454;7.194;2023-11-21T14:58:21;8.50;;;5.83;;
1390;SDS011;690;51.454;7.194;2023-11-21T15:00:52;7.33;;;5.73;;
1390;SDS011;690;51.454;7.194;2023-11-21T15:03:24;8.10;;;5.63;;
1390;SDS011;690;51.454;7.194;2023-11-21T15:06:08;9.10;;;5.47;;
1390;SDS011;690;51.454;7.194;2023-11-21T15:08:53;10.97;;;6.00;;
1390;SDS011;690;51.454;7.194;2023-11-21T15:11:42;8.97;;;4.93;;